createdAt,value
2022-07-29T00:00:45.762Z,15.85
2022-07-29T00:03:14.918Z,15.83
2022-07-29T00:05:43.333Z,15.80
2022-07-29T00:08:12.682Z,15.74
2022-07-29T00:10:40.854Z,15.72
2022-07-29T00:13:08.778Z,15.69
2022-07-29T00:15:36.989Z,15.69
2022-07-29T00:18:05.137Z,15.70
2022-07-29T00:20:32.979Z,15.69
2022-07-29T00:23:01.431Z,15.70
2022-07-29T00:25:29.208Z,15.69
2022-07-29T00:27:57.025Z,15.69
2022-07-29T00:30:24.864Z,15.66
2022-07-29T00:32:52.644Z,15.63
2022-07-29T00:35:39.234Z,15.58
2022-07-29T00:38:08.016Z,15.55
2022-07-29T00:40:35.821Z,15.54
2022-07-29T00:43:03.926Z,15.53
2022-07-29T00:45:31.989Z,15.52
2022-07-29T00:48:00.294Z,15.51
2022-07-29T00:50:28.474Z,15.50
2022-07-29T00:52:56.300Z,15.48
2022-07-29T00:55:24.273Z,15.47
2022-07-29T00:57:53.090Z,15.47
2022-07-29T01:00:24.604Z,15.47
2022-07-29T01:02:52.701Z,15.46
2022-07-29T01:05:22.477Z,15.43
2022-07-29T01:07:54.697Z,15.40
2022-07-29T01:10:23.612Z,15.37
2022-07-29T01:12:52.967Z,15.35
2022-07-29T01:15:21.318Z,15.33
2022-07-29T01:17:58.731Z,15.31
2022-07-29T01:21:01.033Z,15.29
2022-07-29T01:23:46.953Z,15.29
2022-07-29T01:26:33.444Z,15.27
2022-07-29T01:29:23.617Z,15.27
2022-07-29T01:32:01.245Z,15.26
2022-07-29T01:34:37.129Z,15.24
2022-07-29T01:37:31.147Z,15.20
2022-07-29T01:39:59.994Z,15.16
2022-07-29T01:42:46.566Z,15.14
2022-07-29T01:46:03.691Z,15.11
2022-07-29T01:48:51.552Z,15.08
2022-07-29T01:51:29.489Z,15.07
2022-07-29T01:54:06.437Z,15.05
2022-07-29T01:56:36.486Z,15.00
2022-07-29T01:59:06.119Z,14.99
2022-07-29T02:01:34.238Z,14.96
2022-07-29T02:04:07.475Z,14.92
2022-07-29T02:06:36.386Z,14.93
2022-07-29T02:09:05.626Z,14.94
2022-07-29T02:11:37.202Z,14.94
2022-07-29T02:14:05.536Z,14.93
2022-07-29T02:16:34.763Z,14.92
2022-07-29T02:19:05.125Z,14.90
2022-07-29T02:21:33.221Z,14.87
2022-07-29T02:24:02.600Z,14.86
2022-07-29T02:26:32.535Z,14.85
2022-07-29T02:29:01.343Z,14.84
2022-07-29T02:31:33.978Z,14.81
2022-07-29T02:34:08.544Z,14.78
2022-07-29T02:36:37.610Z,14.76
2022-07-29T02:39:06.370Z,14.74
2022-07-29T02:41:48.887Z,14.74
2022-07-29T02:44:21.903Z,14.74
2022-07-29T02:47:22.196Z,14.74
2022-07-29T02:49:56.609Z,14.73
2022-07-29T02:52:41.032Z,14.72
2022-07-29T02:55:32.029Z,14.72
2022-07-29T02:58:15.632Z,14.72
2022-07-29T03:00:44.022Z,14.73
2022-07-29T03:03:17.414Z,14.72
2022-07-29T03:05:45.674Z,14.66
2022-07-29T03:08:16.115Z,14.67
2022-07-29T03:10:46.618Z,14.77
2022-07-29T03:13:15.696Z,14.84
2022-07-29T03:15:44.677Z,14.92
2022-07-29T03:18:13.131Z,14.98
2022-07-29T03:20:41.537Z,15.06
2022-07-29T03:23:09.781Z,15.15
2022-07-29T03:25:37.667Z,15.22
2022-07-29T03:28:05.777Z,15.29
2022-07-29T03:30:33.795Z,15.36
2022-07-29T03:33:02.034Z,15.43
2022-07-29T03:35:32.581Z,15.50
2022-07-29T03:38:00.605Z,15.56
2022-07-29T03:40:36.667Z,15.63
2022-07-29T03:43:05.184Z,15.73
2022-07-29T03:45:33.401Z,15.82
2022-07-29T03:48:05.327Z,15.90
2022-07-29T03:50:34.978Z,15.97
2022-07-29T03:53:03.867Z,16.07
2022-07-29T03:55:37.616Z,16.18
2022-07-29T03:58:06.476Z,16.25
2022-07-29T04:00:34.903Z,16.21
2022-07-29T04:03:05.167Z,16.24
2022-07-29T04:05:39.240Z,16.34
2022-07-29T04:08:07.072Z,16.43
2022-07-29T04:10:35.176Z,16.52
2022-07-29T04:13:03.856Z,16.58
2022-07-29T04:15:32.035Z,16.72
2022-07-29T04:18:00.528Z,16.93
2022-07-29T04:20:28.531Z,17.13
2022-07-29T04:22:56.537Z,17.26
2022-07-29T04:25:24.464Z,17.29
2022-07-29T04:28:01.182Z,17.45
2022-07-29T04:30:30.677Z,17.62
2022-07-29T04:32:59.454Z,17.82
2022-07-29T04:35:28.236Z,18.02
2022-07-29T04:37:56.878Z,18.21
2022-07-29T04:40:25.337Z,18.35
2022-07-29T04:42:53.420Z,18.54
2022-07-29T04:45:22.875Z,18.62
2022-07-29T04:47:51.151Z,18.75
2022-07-29T04:50:19.090Z,18.79
2022-07-29T04:52:46.837Z,18.76
2022-07-29T04:55:14.719Z,18.76
2022-07-29T04:57:42.549Z,18.82
2022-07-29T05:00:10.975Z,18.94
2022-07-29T05:02:39.360Z,18.99
2022-07-29T05:05:07.797Z,19.01
2022-07-29T05:07:35.775Z,19.08
2022-07-29T05:10:04.346Z,19.22
2022-07-29T05:12:32.246Z,19.40
2022-07-29T05:15:00.049Z,19.59
2022-07-29T05:17:27.890Z,19.72
2022-07-29T05:19:55.698Z,19.84
2022-07-29T05:22:24.696Z,19.98
2022-07-29T05:24:53.433Z,20.10
2022-07-29T05:27:21.280Z,20.21
2022-07-29T05:29:49.248Z,20.27
2022-07-29T05:32:17.034Z,20.30
2022-07-29T05:34:50.297Z,20.36
2022-07-29T05:37:20.717Z,20.46
2022-07-29T05:39:56.148Z,20.61
2022-07-29T05:42:26.333Z,20.55
2022-07-29T05:44:54.688Z,20.50
2022-07-29T05:47:23.089Z,20.56
2022-07-29T05:49:51.704Z,20.69
2022-07-29T05:52:19.696Z,20.86
2022-07-29T05:54:47.757Z,21.04
2022-07-29T05:57:23.395Z,21.23
2022-07-29T05:59:52.042Z,21.44
2022-07-29T06:02:20.116Z,21.62
2022-07-29T06:04:48.128Z,21.43
2022-07-29T06:07:17.239Z,21.04
2022-07-29T06:09:45.197Z,20.70
2022-07-29T06:12:13.114Z,20.46
2022-07-29T06:14:41.134Z,20.43
2022-07-29T06:17:09.139Z,20.90
2022-07-29T06:19:37.491Z,21.42
2022-07-29T06:22:05.881Z,21.73
2022-07-29T06:24:33.693Z,21.54
2022-07-29T06:27:01.632Z,21.28
2022-07-29T06:29:29.575Z,21.11
2022-07-29T06:31:57.715Z,21.02
2022-07-29T06:34:25.484Z,20.94
2022-07-29T06:36:54.274Z,20.90
2022-07-29T06:39:22.405Z,20.88
2022-07-29T06:41:51.642Z,20.92
2022-07-29T06:44:20.372Z,21.01
2022-07-29T06:46:51.260Z,21.13
2022-07-29T06:49:19.405Z,21.21
2022-07-29T06:51:47.752Z,21.21
2022-07-29T06:54:16.730Z,21.27
2022-07-29T06:56:45.100Z,21.37
2022-07-29T06:59:13.505Z,21.53
2022-07-29T07:01:43.411Z,21.64
2022-07-29T07:04:12.356Z,21.75
2022-07-29T07:06:40.540Z,21.85
2022-07-29T07:09:08.643Z,21.97
2022-07-29T07:11:36.748Z,22.11
2022-07-29T07:14:05.066Z,22.23
2022-07-29T07:16:33.416Z,22.35
2022-07-29T07:19:02.005Z,22.38
2022-07-29T07:21:31.590Z,22.45
2022-07-29T07:24:00.418Z,22.55
2022-07-29T07:26:28.741Z,22.64
2022-07-29T07:28:57.073Z,22.75
2022-07-29T07:31:25.159Z,22.81
2022-07-29T07:33:54.733Z,22.86
2022-07-29T07:36:23.605Z,22.92
2022-07-29T07:38:51.834Z,23.06
2022-07-29T07:41:19.863Z,23.23
2022-07-29T07:43:47.940Z,23.36
2022-07-29T07:46:16.846Z,23.45
2022-07-29T07:48:45.746Z,23.55
2022-07-29T07:51:13.796Z,23.69
2022-07-29T07:53:41.791Z,23.86
2022-07-29T07:56:11.780Z,24.02
2022-07-29T07:58:40.684Z,24.15
2022-07-29T08:01:09.773Z,24.21
2022-07-29T08:03:37.601Z,24.24
2022-07-29T08:06:06.157Z,24.25
2022-07-29T08:08:34.166Z,24.25
2022-07-29T08:11:09.179Z,24.29
2022-07-29T08:13:38.914Z,24.41
2022-07-29T08:16:16.106Z,24.49
2022-07-29T08:18:46.355Z,24.58
2022-07-29T08:21:16.597Z,24.72
2022-07-29T08:23:58.609Z,24.84
2022-07-29T08:26:27.830Z,24.96
2022-07-29T08:28:55.815Z,25.10
2022-07-29T08:31:23.930Z,25.20
2022-07-29T08:33:52.093Z,25.30
2022-07-29T08:36:22.052Z,25.47
2022-07-29T08:38:50.762Z,25.60
2022-07-29T08:41:21.705Z,25.62
2022-07-29T08:43:51.122Z,25.67
2022-07-29T08:46:20.253Z,25.75
2022-07-29T08:48:48.980Z,25.86
2022-07-29T08:51:19.558Z,25.93
2022-07-29T08:53:49.805Z,25.91
2022-07-29T08:56:19.847Z,26.11
2022-07-29T08:58:52.069Z,26.44
2022-07-29T09:01:35.894Z,26.79
2022-07-29T09:04:12.812Z,27.15
2022-07-29T09:06:44.944Z,27.37
2022-07-29T09:09:14.711Z,27.54
2022-07-29T09:11:43.318Z,27.63
2022-07-29T09:14:13.558Z,27.57
2022-07-29T09:16:56.108Z,27.39
2022-07-29T09:19:25.186Z,27.74
2022-07-29T09:21:59.837Z,29.07
2022-07-29T09:24:40.868Z,29.37
2022-07-29T09:27:10.769Z,29.69
2022-07-29T09:29:39.333Z,30.87
2022-07-29T09:32:10.806Z,32.41
2022-07-29T09:34:39.175Z,32.85
2022-07-29T09:37:07.213Z,32.63
2022-07-29T09:39:46.734Z,32.59
2022-07-29T09:42:28.960Z,33.96
2022-07-29T09:44:57.086Z,34.41
2022-07-29T09:47:42.461Z,33.99
2022-07-29T09:50:10.324Z,33.41
2022-07-29T09:52:52.971Z,32.96
2022-07-29T09:55:20.986Z,32.73
2022-07-29T09:57:48.781Z,32.15
2022-07-29T10:00:19.793Z,31.58
2022-07-29T10:02:48.481Z,31.44
2022-07-29T10:05:24.940Z,31.47
2022-07-29T10:07:57.754Z,31.28
2022-07-29T10:10:29.496Z,31.14
2022-07-29T10:13:06.410Z,30.96
2022-07-29T10:15:40.089Z,30.67
2022-07-29T10:18:09.288Z,30.98
2022-07-29T10:20:38.162Z,32.22
2022-07-29T10:23:06.475Z,34.35
2022-07-29T10:25:34.525Z,36.76
2022-07-29T10:28:02.438Z,38.89
2022-07-29T10:30:30.254Z,40.71
2022-07-29T10:33:07.799Z,41.86
2022-07-29T10:35:54.487Z,41.89
2022-07-29T10:41:47.642Z,42.93
2022-07-29T10:44:22.998Z,42.94
2022-07-29T10:46:52.779Z,42.90
2022-07-29T10:49:30.393Z,41.98
2022-07-29T10:52:06.683Z,40.73
2022-07-29T10:54:35.007Z,39.26
2022-07-29T10:57:21.860Z,38.18
2022-07-29T11:00:09.973Z,37.04
2022-07-29T11:02:44.583Z,36.63
2022-07-29T11:05:19.876Z,36.09
2022-07-29T11:08:20.105Z,35.53
2022-07-29T11:10:49.956Z,34.90
2022-07-29T11:13:55.816Z,34.28
2022-07-29T11:16:25.626Z,33.44
2022-07-29T11:19:13.139Z,32.78
2022-07-29T11:22:05.453Z,32.13
2022-07-29T11:24:33.351Z,31.80
2022-07-29T11:27:21.497Z,31.62
2022-07-29T11:29:52.231Z,31.67
2022-07-29T11:32:24.161Z,31.70
2022-07-29T11:35:16.692Z,31.84
2022-07-29T11:37:52.184Z,32.07
2022-07-29T11:40:24.225Z,32.13
2022-07-29T11:42:53.407Z,32.30
2022-07-29T11:45:44.710Z,32.50
2022-07-29T11:48:28.046Z,32.45
2022-07-29T11:51:00.889Z,32.06
2022-07-29T11:53:32.567Z,31.82
2022-07-29T11:56:03.845Z,31.72
2022-07-29T11:58:33.044Z,31.61
2022-07-29T12:01:04.723Z,31.45
2022-07-29T12:04:04.264Z,31.21
2022-07-29T12:06:37.940Z,30.94
2022-07-29T12:09:14.453Z,30.67
2022-07-29T12:11:47.318Z,30.63
2022-07-29T12:14:33.440Z,30.61
2022-07-29T12:17:02.981Z,30.37
2022-07-29T12:19:44.443Z,30.07
2022-07-29T12:22:12.897Z,29.85
2022-07-29T12:24:45.475Z,29.63
2022-07-29T12:27:18.539Z,29.30
2022-07-29T12:29:57.437Z,29.14
2022-07-29T12:32:33.882Z,29.10
2022-07-29T12:35:10.372Z,29.11
2022-07-29T12:37:41.137Z,29.07
2022-07-29T12:40:13.629Z,29.02
2022-07-29T12:42:41.889Z,28.95
2022-07-29T12:45:10.023Z,28.80
2022-07-29T12:47:53.176Z,28.64
2022-07-29T12:50:25.926Z,28.55
2022-07-29T12:52:54.757Z,28.47
2022-07-29T12:55:52.630Z,28.55
2022-07-29T12:58:28.529Z,28.58
2022-07-29T13:01:05.386Z,28.53
2022-07-29T13:03:58.056Z,28.41
2022-07-29T13:06:38.947Z,28.37
2022-07-29T13:09:10.500Z,28.18
2022-07-29T13:11:45.294Z,28.11
2022-07-29T13:14:35.488Z,28.02
2022-07-29T13:17:12.425Z,27.99
2022-07-29T13:19:49.199Z,27.98
2022-07-29T13:22:20.202Z,27.93
2022-07-29T13:24:53.634Z,27.89
2022-07-29T13:27:26.989Z,27.93
2022-07-29T13:29:57.647Z,27.98
2022-07-29T13:32:28.574Z,27.93
2022-07-29T13:34:58.174Z,27.84
2022-07-29T13:37:28.253Z,27.74
2022-07-29T13:39:57.904Z,27.66
2022-07-29T13:42:26.640Z,27.57
2022-07-29T13:44:54.519Z,27.59
2022-07-29T13:47:23.111Z,27.64
2022-07-29T13:50:02.249Z,27.60
2022-07-29T13:52:30.519Z,27.49
2022-07-29T13:54:58.613Z,27.36
2022-07-29T13:57:27.405Z,27.20
2022-07-29T13:59:55.200Z,27.05
2022-07-29T14:02:25.627Z,27.01
2022-07-29T14:04:55.250Z,26.97
2022-07-29T14:07:23.652Z,26.91
2022-07-29T14:09:51.888Z,26.90
2022-07-29T14:12:20.305Z,27.03
2022-07-29T14:14:48.102Z,27.11
2022-07-29T14:17:16.548Z,27.14
2022-07-29T14:19:44.363Z,27.07
2022-07-29T14:22:12.453Z,27.01
2022-07-29T14:24:40.701Z,27.01
2022-07-29T14:27:09.079Z,27.06
2022-07-29T14:29:38.761Z,27.07
2022-07-29T14:32:08.272Z,26.95
2022-07-29T14:34:37.620Z,26.88
2022-07-29T14:37:07.074Z,26.91
2022-07-29T14:39:42.322Z,27.07
2022-07-29T14:42:12.880Z,27.32
2022-07-29T14:44:42.409Z,27.54
2022-07-29T14:47:10.691Z,27.66
2022-07-29T14:49:38.497Z,27.73
2022-07-29T14:52:06.634Z,27.72
2022-07-29T14:54:35.007Z,27.65
2022-07-29T14:57:02.794Z,27.55
2022-07-29T14:59:31.277Z,27.43
2022-07-29T15:01:59.584Z,27.32
2022-07-29T15:04:27.667Z,27.20
2022-07-29T15:06:55.535Z,27.11
2022-07-29T15:09:24.965Z,27.08
2022-07-29T15:11:53.004Z,27.17
2022-07-29T15:14:20.822Z,27.32
2022-07-29T15:16:49.119Z,27.38
2022-07-29T15:19:17.067Z,27.29
2022-07-29T15:21:48.714Z,27.11
2022-07-29T15:24:18.138Z,27.00
2022-07-29T15:26:46.949Z,26.88
2022-07-29T15:29:15.252Z,26.70
2022-07-29T15:31:44.481Z,26.53
2022-07-29T15:34:12.456Z,26.32
2022-07-29T15:36:56.057Z,26.13
2022-07-29T15:39:24.948Z,26.00
2022-07-29T15:41:52.803Z,25.88
2022-07-29T15:44:21.472Z,25.77
2022-07-29T15:47:05.860Z,25.65
2022-07-29T15:49:48.637Z,25.49
2022-07-29T15:52:25.073Z,25.35
2022-07-29T15:54:56.008Z,25.21
2022-07-29T15:57:24.825Z,25.10
2022-07-29T15:59:53.031Z,25.00
2022-07-29T16:02:21.017Z,24.93
2022-07-29T16:04:48.908Z,24.86
2022-07-29T16:07:17.088Z,24.78
2022-07-29T16:09:49.236Z,24.68
2022-07-29T16:12:20.615Z,24.60
2022-07-29T16:14:49.659Z,24.52
2022-07-29T16:17:18.336Z,24.43
2022-07-29T16:19:50.311Z,24.36
2022-07-29T16:22:18.246Z,24.28
2022-07-29T16:24:46.119Z,24.20
2022-07-29T16:27:14.629Z,24.13
2022-07-29T16:29:42.586Z,24.04
2022-07-29T16:32:10.711Z,23.97
2022-07-29T16:34:38.617Z,23.91
2022-07-29T16:37:06.613Z,23.85
2022-07-29T16:39:34.510Z,23.79
2022-07-29T16:42:05.049Z,23.71
2022-07-29T16:44:34.861Z,23.63
2022-07-29T16:47:04.276Z,23.55
2022-07-29T16:49:32.586Z,23.49
2022-07-29T16:52:00.748Z,23.44
2022-07-29T16:54:28.986Z,23.40
2022-07-29T16:56:57.311Z,23.37
2022-07-29T16:59:25.386Z,23.35
2022-07-29T17:01:53.233Z,23.33
2022-07-29T17:04:22.872Z,23.32
2022-07-29T17:06:50.957Z,23.29
2022-07-29T17:09:18.888Z,23.27
2022-07-29T17:11:54.901Z,23.24
2022-07-29T17:14:25.433Z,23.21
2022-07-29T17:17:02.590Z,23.17
2022-07-29T17:19:35.167Z,23.13
2022-07-29T17:22:12.630Z,23.09
2022-07-29T17:24:44.069Z,23.05
2022-07-29T17:27:11.966Z,23.03
2022-07-29T17:29:40.004Z,23.00
2022-07-29T17:32:09.116Z,22.95
2022-07-29T17:34:41.083Z,22.89
2022-07-29T17:37:11.145Z,22.83
2022-07-29T17:39:41.232Z,22.77
2022-07-29T17:42:11.073Z,22.71
2022-07-29T17:44:39.826Z,22.65
2022-07-29T17:47:15.659Z,22.58
2022-07-29T17:49:45.326Z,22.50
2022-07-29T17:52:13.291Z,22.43
2022-07-29T17:54:41.223Z,22.36
2022-07-29T17:57:09.202Z,22.28
2022-07-29T17:59:38.141Z,22.19
2022-07-29T18:02:06.046Z,22.11
2022-07-29T18:04:34.067Z,22.03
2022-07-29T18:07:02.138Z,21.95
2022-07-29T18:09:30.283Z,21.87
2022-07-29T18:11:58.131Z,21.78
2022-07-29T18:14:26.098Z,21.69
2022-07-29T18:16:53.865Z,21.61
2022-07-29T18:19:22.001Z,21.52
2022-07-29T18:21:54.178Z,21.44
2022-07-29T18:24:25.912Z,21.35
2022-07-29T18:26:54.121Z,21.26
2022-07-29T18:29:21.978Z,21.17
2022-07-29T18:31:50.319Z,21.07
2022-07-29T18:34:19.905Z,20.98
2022-07-29T18:36:47.866Z,20.88
2022-07-29T18:39:20.873Z,20.78
2022-07-29T18:41:51.408Z,20.69
2022-07-29T18:44:22.114Z,20.59
2022-07-29T18:46:52.029Z,20.50
2022-07-29T18:49:20.117Z,20.41
2022-07-29T18:51:49.342Z,20.32
2022-07-29T18:54:18.053Z,20.24
2022-07-29T18:56:46.733Z,20.16
2022-07-29T18:59:20.198Z,20.08
2022-07-29T19:01:48.629Z,20.00
2022-07-29T19:04:17.334Z,19.92
2022-07-29T19:06:46.835Z,19.85
2022-07-29T19:09:14.752Z,19.78
2022-07-29T19:11:42.595Z,19.71
2022-07-29T19:14:10.967Z,19.65
2022-07-29T19:16:38.836Z,19.60
2022-07-29T19:19:08.516Z,19.56
2022-07-29T19:21:36.677Z,19.52
2022-07-29T19:24:11.077Z,19.48
2022-07-29T19:26:47.135Z,19.45
2022-07-29T19:29:15.743Z,19.42
2022-07-29T19:31:44.083Z,19.40
2022-07-29T19:34:12.623Z,19.38
2022-07-29T19:36:41.826Z,19.35
2022-07-29T19:39:10.516Z,19.34
2022-07-29T19:41:38.490Z,19.31
2022-07-29T19:44:06.233Z,19.30
2022-07-29T19:46:34.002Z,19.29
2022-07-29T19:49:01.973Z,19.28
2022-07-29T19:51:29.927Z,19.26
2022-07-29T19:53:58.130Z,19.27
2022-07-29T19:56:27.447Z,19.27
2022-07-29T19:58:57.057Z,19.27
2022-07-29T20:01:25.014Z,19.28
2022-07-29T20:03:53.876Z,19.29
2022-07-29T20:06:23.221Z,19.29
2022-07-29T20:08:55.364Z,19.30
2022-07-29T20:11:26.766Z,19.30
2022-07-29T20:13:54.647Z,19.31
2022-07-29T20:16:22.800Z,19.31
2022-07-29T20:18:53.241Z,19.31
2022-07-29T20:21:21.084Z,19.31
2022-07-29T20:23:49.095Z,19.31
2022-07-29T20:26:17.475Z,19.31
2022-07-29T20:28:49.288Z,19.30
2022-07-29T20:31:18.808Z,19.29
2022-07-29T20:33:47.362Z,19.29
2022-07-29T20:36:15.410Z,19.29
2022-07-29T20:38:43.715Z,19.31
2022-07-29T20:41:11.690Z,19.33
2022-07-29T20:43:40.085Z,19.34
2022-07-29T20:46:08.031Z,19.36
2022-07-29T20:48:35.918Z,19.36
2022-07-29T20:51:03.926Z,19.37
2022-07-29T20:53:33.953Z,19.37
2022-07-29T20:56:01.853Z,19.37
2022-07-29T20:58:29.648Z,19.36
2022-07-29T21:00:57.627Z,19.36
2022-07-29T21:03:25.524Z,19.35
2022-07-29T21:05:55.072Z,19.35
2022-07-29T21:08:23.009Z,19.33
2022-07-29T21:10:50.851Z,19.33
2022-07-29T21:13:20.616Z,19.31
2022-07-29T21:15:50.309Z,19.30
2022-07-29T21:18:30.753Z,19.29
2022-07-29T21:21:01.354Z,19.27
2022-07-29T21:23:30.200Z,19.26
2022-07-29T21:25:58.316Z,19.25
2022-07-29T21:28:26.634Z,19.24
2022-07-29T21:30:55.892Z,19.21
2022-07-29T21:33:24.831Z,19.19
2022-07-29T21:36:20.322Z,19.16
2022-07-29T21:38:40.497Z,19.12
2022-07-29T21:41:08.524Z,19.08
2022-07-29T21:43:36.316Z,19.04
2022-07-29T21:46:04.922Z,19.00
2022-07-29T21:48:33.097Z,18.96
2022-07-29T21:51:00.959Z,18.91
2022-07-29T21:53:28.841Z,18.88
2022-07-29T21:55:58.632Z,18.84
2022-07-29T21:58:27.479Z,18.80
2022-07-29T22:00:55.280Z,18.78
2022-07-29T22:03:23.115Z,18.76
2022-07-29T22:05:50.924Z,18.74
2022-07-29T22:08:21.048Z,18.72
2022-07-29T22:10:48.800Z,18.71
2022-07-29T22:13:16.742Z,18.70
2022-07-29T22:15:47.162Z,18.69
2022-07-29T22:18:20.996Z,18.68
2022-07-29T22:20:50.026Z,18.67
2022-07-29T22:23:17.907Z,18.67
2022-07-29T22:25:45.894Z,18.66
2022-07-29T22:28:14.997Z,18.66
2022-07-29T22:30:42.900Z,18.65
2022-07-29T22:33:17.967Z,18.65
2022-07-29T22:35:48.437Z,18.64
2022-07-29T22:38:19.524Z,18.64
2022-07-29T22:40:50.663Z,18.63
2022-07-29T22:43:18.772Z,18.62
2022-07-29T22:45:46.878Z,18.61
2022-07-29T22:48:14.826Z,18.61
2022-07-29T22:50:42.612Z,18.61
2022-07-29T22:53:10.476Z,18.61
2022-07-29T22:55:38.565Z,18.61
2022-07-29T22:58:06.439Z,18.60
2022-07-29T23:00:34.500Z,18.60
2022-07-29T23:03:02.388Z,18.59
2022-07-29T23:05:30.547Z,18.59
2022-07-29T23:07:58.381Z,18.58
2022-07-29T23:10:26.745Z,18.57
2022-07-29T23:12:54.636Z,18.57
2022-07-29T23:15:23.085Z,18.56
2022-07-29T23:17:51.654Z,18.56
2022-07-29T23:20:19.535Z,18.57
2022-07-29T23:22:47.360Z,18.57
2022-07-29T23:25:15.097Z,18.57
2022-07-29T23:27:43.063Z,18.57
2022-07-29T23:30:11.842Z,18.56
2022-07-29T23:32:41.022Z,18.55
2022-07-29T23:35:09.557Z,18.53
2022-07-29T23:37:37.391Z,18.50
2022-07-29T23:40:08.670Z,18.48
2022-07-29T23:42:38.885Z,18.45
2022-07-29T23:45:07.465Z,18.44
2022-07-29T23:47:35.411Z,18.43
2022-07-29T23:50:04.324Z,18.42
2022-07-29T23:52:32.074Z,18.40
2022-07-29T23:55:38.181Z,18.39
2022-07-29T23:57:49.921Z,18.37
